createdAt,value
2019-03-24T00:01:04.330Z,80204.75
2019-03-24T00:03:34.020Z,80220.93
2019-03-24T00:06:03.754Z,80208.80
2019-03-24T00:08:34.318Z,80243.17
2019-03-24T00:11:04.593Z,80238.12
2019-03-24T00:13:34.691Z,80243.17
2019-03-24T00:16:04.399Z,80239.13
2019-03-24T00:18:34.395Z,80262.38
2019-03-24T00:21:04.420Z,80259.34
2019-03-24T00:23:34.449Z,80257.33
2019-03-24T00:26:04.566Z,80265.41
2019-03-24T00:28:34.353Z,80284.63
2019-03-24T00:31:04.008Z,80271.48
2019-03-24T00:33:34.113Z,80241.15
2019-03-24T00:36:03.797Z,80229.02
2019-03-24T00:38:34.146Z,80220.93
2019-03-24T00:41:04.190Z,80241.15
2019-03-24T00:43:33.877Z,80268.45
2019-03-24T00:46:03.741Z,80281.59
2019-03-24T00:48:33.467Z,80303.83
2019-03-24T00:51:03.154Z,80294.73
2019-03-24T00:53:33.320Z,80299.78
2019-03-24T00:56:03.433Z,80298.77
2019-03-24T00:58:33.362Z,80280.58
2019-03-24T01:01:03.091Z,80304.84
2019-03-24T01:03:32.795Z,80315.96
2019-03-24T01:06:02.659Z,80305.85
2019-03-24T01:08:32.331Z,80307.88
2019-03-24T01:11:02.026Z,80294.73
2019-03-24T01:13:31.718Z,80294.73
2019-03-24T01:16:01.414Z,80295.74
2019-03-24T01:18:31.112Z,80303.83
2019-03-24T01:21:01.388Z,80295.74
2019-03-24T01:23:31.106Z,80301.81
2019-03-24T01:26:00.968Z,80311.92
2019-03-24T01:28:33.374Z,80317.98
2019-03-24T01:31:03.092Z,80340.22
2019-03-24T01:33:33.708Z,80326.07
2019-03-24T01:36:03.608Z,80360.45
2019-03-24T01:38:33.415Z,80357.41
2019-03-24T01:41:03.465Z,80346.30
2019-03-24T01:43:33.335Z,80348.31
2019-03-24T01:46:03.086Z,80363.48
2019-03-24T01:48:33.439Z,80379.66
2019-03-24T01:51:03.148Z,80351.34
2019-03-24T01:53:33.053Z,80333.14
2019-03-24T01:56:02.720Z,80311.92
2019-03-24T01:58:32.437Z,80297.77
2019-03-24T02:01:02.694Z,80265.41
2019-03-24T02:03:32.361Z,80247.22
2019-03-24T02:06:02.477Z,80263.39
2019-03-24T02:08:32.215Z,80236.09
2019-03-24T02:11:01.967Z,80242.16
2019-03-24T02:13:32.194Z,80260.36
2019-03-24T02:16:09.268Z,80275.52
2019-03-24T02:18:33.590Z,80298.77
2019-03-24T02:21:03.558Z,80295.74
2019-03-24T02:23:33.696Z,80295.74
2019-03-24T02:26:03.366Z,80305.85
2019-03-24T02:28:33.392Z,80318.99
2019-03-24T02:31:03.123Z,80330.11
2019-03-24T02:33:33.331Z,80344.27
2019-03-24T02:36:03.432Z,80342.25
2019-03-24T02:38:33.108Z,80321.02
2019-03-24T02:41:02.938Z,80328.09
2019-03-24T02:43:33.001Z,80340.22
2019-03-24T02:46:02.684Z,80350.34
2019-03-24T02:48:32.588Z,80382.69
2019-03-24T02:51:02.622Z,80370.55
2019-03-24T02:53:32.308Z,80378.64
2019-03-24T02:56:02.564Z,80398.86
2019-03-24T02:58:32.248Z,80377.62
2019-03-24T03:01:02.303Z,80365.50
2019-03-24T03:03:32.030Z,80347.30
2019-03-24T03:06:02.134Z,80344.27
2019-03-24T03:08:31.888Z,80348.31
2019-03-24T03:11:02.008Z,80346.30
2019-03-24T03:13:31.816Z,80348.31
2019-03-24T03:16:01.810Z,80340.22
2019-03-24T03:18:32.572Z,80328.09
2019-03-24T03:21:03.797Z,80350.34
2019-03-24T03:23:33.951Z,80353.37
2019-03-24T03:26:03.620Z,80347.30
2019-03-24T03:28:33.914Z,80349.33
2019-03-24T03:31:03.619Z,80346.30
2019-03-24T03:33:33.283Z,80336.18
2019-03-24T03:36:03.115Z,80346.30
2019-03-24T03:38:32.817Z,80335.17
2019-03-24T03:41:02.723Z,80334.16
2019-03-24T03:43:32.881Z,80337.19
2019-03-24T03:46:02.633Z,80338.20
2019-03-24T03:48:32.654Z,80330.11
2019-03-24T03:51:02.386Z,80336.18
2019-03-24T03:53:33.124Z,80322.03
2019-03-24T03:56:03.140Z,80333.14
2019-03-24T03:58:33.136Z,80339.22
2019-03-24T04:01:02.954Z,80357.41
2019-03-24T04:03:32.704Z,80363.48
2019-03-24T04:06:02.783Z,80359.44
2019-03-24T04:08:32.932Z,80345.28
2019-03-24T04:11:02.694Z,80339.22
2019-03-24T04:13:32.399Z,80336.18
2019-03-24T04:16:02.335Z,80358.42
2019-03-24T04:18:32.077Z,80354.38
2019-03-24T04:21:01.755Z,80369.55
2019-03-24T04:23:31.479Z,80378.64
2019-03-24T04:26:01.209Z,80373.59
2019-03-24T04:28:30.929Z,80350.34
2019-03-24T04:31:01.434Z,80341.23
2019-03-24T04:33:31.353Z,80337.19
2019-03-24T04:36:01.436Z,80353.37
2019-03-24T04:38:31.174Z,80351.34
2019-03-24T04:41:00.995Z,80314.95
2019-03-24T04:43:30.731Z,80305.85
2019-03-24T04:46:00.440Z,80300.80
2019-03-24T04:48:30.151Z,80281.59
2019-03-24T04:50:59.849Z,80269.45
2019-03-24T04:53:29.948Z,80256.31
2019-03-24T04:55:59.947Z,80252.27
2019-03-24T04:58:29.638Z,80240.14
2019-03-24T05:00:59.397Z,80230.03
2019-03-24T05:03:29.136Z,80224.98
2019-03-24T05:05:58.804Z,80214.87
2019-03-24T05:08:28.665Z,80212.84
2019-03-24T05:10:58.848Z,80210.82
2019-03-24T05:13:28.575Z,80205.77
2019-03-24T05:15:58.614Z,80203.75
2019-03-24T05:18:29.167Z,80203.75
2019-03-24T05:20:59.272Z,80198.69
2019-03-24T05:23:28.969Z,80209.81
2019-03-24T05:25:58.660Z,80210.82
2019-03-24T05:28:28.872Z,80193.64
2019-03-24T05:30:58.875Z,80198.69
2019-03-24T05:33:28.998Z,80190.60
2019-03-24T05:35:58.684Z,80186.56
2019-03-24T05:38:28.778Z,80178.47
2019-03-24T05:40:58.503Z,80185.55
2019-03-24T05:43:28.477Z,80187.56
2019-03-24T05:45:58.214Z,80176.45
2019-03-24T05:48:28.327Z,80174.42
2019-03-24T05:50:58.372Z,80168.36
2019-03-24T05:53:28.074Z,80163.30
2019-03-24T05:55:58.205Z,80161.28
2019-03-24T05:58:27.893Z,80153.20
2019-03-24T06:00:57.597Z,80158.25
2019-03-24T06:03:27.491Z,80150.16
2019-03-24T06:05:57.538Z,80124.89
2019-03-24T06:08:27.225Z,80067.27
2019-03-24T06:10:57.141Z,80061.20
2019-03-24T06:13:27.107Z,80071.31
2019-03-24T06:15:56.791Z,80096.59
2019-03-24T06:18:26.535Z,80099.62
2019-03-24T06:20:56.249Z,80097.59
2019-03-24T06:23:26.516Z,80089.51
2019-03-24T06:25:56.608Z,80075.36
2019-03-24T06:28:26.315Z,80056.15
2019-03-24T06:30:56.117Z,80056.15
2019-03-24T06:33:26.239Z,80037.95
2019-03-24T06:35:55.929Z,80023.80
2019-03-24T06:38:26.015Z,80011.67
2019-03-24T06:40:56.929Z,79997.52
2019-03-24T06:43:27.103Z,79975.28
2019-03-24T06:45:56.906Z,79972.25
2019-03-24T06:48:26.684Z,79936.86
2019-03-24T06:50:56.870Z,79892.39
2019-03-24T06:53:26.843Z,79873.18
2019-03-24T06:55:56.620Z,79870.14
2019-03-24T06:58:26.649Z,79862.06
2019-03-24T07:00:56.556Z,79837.80
2019-03-24T07:03:26.233Z,79817.58
2019-03-24T07:05:56.239Z,79801.41
2019-03-24T07:08:26.128Z,79799.39
2019-03-24T07:10:55.843Z,79761.98
2019-03-24T07:13:26.265Z,79739.75
2019-03-24T07:15:55.986Z,79737.73
2019-03-24T07:18:25.993Z,79720.55
2019-03-24T07:20:56.292Z,79707.41
2019-03-24T07:23:25.984Z,79698.30
2019-03-24T07:25:56.029Z,79674.05
2019-03-24T07:28:27.270Z,79665.95
2019-03-24T07:30:57.314Z,79642.71
2019-03-24T07:33:27.571Z,79606.33
2019-03-24T07:35:57.565Z,79568.92
2019-03-24T07:38:27.294Z,79521.42
2019-03-24T07:40:57.494Z,79507.27
2019-03-24T07:43:27.535Z,79507.27
2019-03-24T07:45:57.530Z,79523.44
2019-03-24T07:48:27.246Z,79501.20
2019-03-24T07:50:56.927Z,79485.03
2019-03-24T07:53:26.640Z,79402.15
2019-03-24T07:55:56.447Z,79341.50
2019-03-24T07:58:26.492Z,79336.45
2019-03-24T08:00:57.013Z,79416.30
2019-03-24T08:03:26.711Z,79457.73
2019-03-24T08:05:57.193Z,79461.78
2019-03-24T08:08:26.923Z,79483.00
2019-03-24T08:10:57.847Z,79460.77
2019-03-24T08:13:28.833Z,79418.31
2019-03-24T08:15:59.290Z,79401.14
2019-03-24T08:18:30.196Z,79324.32
2019-03-24T08:21:00.091Z,79220.22
2019-03-24T08:23:30.605Z,79135.32
2019-03-24T08:26:00.700Z,79046.38
2019-03-24T08:28:30.940Z,79064.58
2019-03-24T08:31:00.648Z,79174.73
2019-03-24T08:33:30.641Z,79227.30
2019-03-24T08:36:01.093Z,79329.38
2019-03-24T08:38:31.181Z,79241.44
2019-03-24T08:41:01.403Z,79248.52
2019-03-24T08:43:32.031Z,79194.95
2019-03-24T08:46:02.371Z,79141.38
2019-03-24T08:48:40.531Z,79070.64
2019-03-24T08:51:04.963Z,79110.05
2019-03-24T08:53:34.955Z,79155.53
2019-03-24T08:56:05.017Z,79150.48
2019-03-24T08:58:35.197Z,79165.64
2019-03-24T09:01:05.034Z,79108.03
2019-03-24T09:03:35.809Z,79081.75
2019-03-24T09:06:05.505Z,79073.67
2019-03-24T09:08:35.272Z,79020.11
2019-03-24T09:11:05.758Z,79041.33
2019-03-24T09:13:35.456Z,79030.21
2019-03-24T09:16:05.681Z,79063.56
2019-03-24T09:18:35.358Z,79022.13
2019-03-24T09:21:05.495Z,79062.55
2019-03-24T09:23:35.930Z,79005.95
2019-03-24T09:26:06.252Z,79078.72
2019-03-24T09:28:36.382Z,79047.39
2019-03-24T09:31:06.067Z,79038.30
2019-03-24T09:33:36.752Z,79013.03
2019-03-24T09:36:06.453Z,79072.66
2019-03-24T09:38:36.130Z,79050.42
2019-03-24T09:41:05.897Z,79083.78
2019-03-24T09:43:35.966Z,79070.64
2019-03-24T09:46:05.679Z,79054.47
2019-03-24T09:48:35.363Z,79018.08
2019-03-24T09:51:05.086Z,78991.80
2019-03-24T09:53:35.640Z,79047.39
2019-03-24T09:56:05.337Z,78993.83
2019-03-24T09:58:35.212Z,78995.84
2019-03-24T10:01:04.946Z,78927.13
2019-03-24T10:03:36.340Z,78968.56
2019-03-24T10:06:06.028Z,78928.14
2019-03-24T10:08:46.602Z,78935.21
2019-03-24T10:11:07.212Z,78997.88
2019-03-24T10:13:36.911Z,79081.75
2019-03-24T10:16:06.612Z,79027.18
2019-03-24T10:18:36.348Z,79015.05
2019-03-24T10:21:07.261Z,79094.89
2019-03-24T10:23:36.981Z,79049.41
2019-03-24T10:26:07.126Z,79012.02
2019-03-24T10:28:37.259Z,78982.71
2019-03-24T10:31:07.308Z,79017.08
2019-03-24T10:33:37.133Z,79085.80
2019-03-24T10:36:06.831Z,79106.01
2019-03-24T10:38:36.922Z,79052.45
2019-03-24T10:41:08.465Z,79087.82
2019-03-24T10:43:38.909Z,79151.48
2019-03-24T10:46:08.728Z,79153.52
2019-03-24T10:48:38.491Z,79132.29
2019-03-24T10:51:08.247Z,79115.11
2019-03-24T10:53:37.932Z,79135.32
2019-03-24T10:56:07.632Z,79191.92
2019-03-24T10:58:37.389Z,79200.00
2019-03-24T11:01:07.088Z,79143.41
2019-03-24T11:03:36.835Z,79184.84
2019-03-24T11:06:07.092Z,79114.09
2019-03-24T11:08:36.815Z,79077.71
2019-03-24T11:11:06.505Z,79065.58
2019-03-24T11:13:36.217Z,78983.72
2019-03-24T11:16:06.290Z,78967.55
2019-03-24T11:18:36.252Z,78881.65
2019-03-24T11:21:05.933Z,78922.08
2019-03-24T11:23:35.901Z,78930.16
2019-03-24T11:26:05.726Z,78944.31
2019-03-24T11:28:35.427Z,78984.73
2019-03-24T11:31:05.113Z,78959.47
2019-03-24T11:33:34.815Z,79054.47
2019-03-24T11:36:04.821Z,78948.34
2019-03-24T11:38:34.537Z,78964.52
2019-03-24T11:41:04.352Z,78981.70
2019-03-24T11:43:35.156Z,78959.47
2019-03-24T11:46:05.130Z,78920.05
2019-03-24T11:48:35.245Z,78946.33
2019-03-24T11:51:05.265Z,78927.13
2019-03-24T11:53:35.021Z,78929.15
2019-03-24T11:56:04.964Z,78924.09
2019-03-24T11:58:35.156Z,78872.55
2019-03-24T12:01:04.845Z,78939.25
2019-03-24T12:03:34.840Z,78920.05
2019-03-24T12:06:13.873Z,78933.19
2019-03-24T12:08:36.140Z,78925.11
2019-03-24T12:11:07.589Z,78974.63
2019-03-24T12:13:37.315Z,78974.63
2019-03-24T12:16:07.030Z,78964.52
2019-03-24T12:18:36.766Z,78985.74
2019-03-24T12:21:06.513Z,79008.98
2019-03-24T12:23:37.256Z,79011.02
2019-03-24T12:26:07.178Z,79004.95
2019-03-24T12:28:36.849Z,79004.95
2019-03-24T12:31:06.819Z,79010.00
2019-03-24T12:33:36.906Z,78996.86
2019-03-24T12:36:06.961Z,79002.92
2019-03-24T12:38:36.724Z,78990.80
2019-03-24T12:41:06.636Z,78985.74
2019-03-24T12:43:37.048Z,78984.73
2019-03-24T12:46:07.133Z,78995.84
2019-03-24T12:48:37.241Z,78988.77
2019-03-24T12:51:07.341Z,78973.61
2019-03-24T12:53:37.333Z,78963.51
2019-03-24T12:56:07.075Z,78940.27
2019-03-24T12:58:36.746Z,78917.02
2019-03-24T13:01:06.794Z,78894.78
2019-03-24T13:03:36.846Z,78906.91
2019-03-24T13:06:07.981Z,78909.95
2019-03-24T13:08:38.402Z,78894.78
2019-03-24T13:11:08.102Z,78866.48
2019-03-24T13:13:38.252Z,78904.89
2019-03-24T13:16:07.985Z,78931.17
2019-03-24T13:18:37.692Z,78919.05
2019-03-24T13:21:07.443Z,78893.78
2019-03-24T13:23:37.458Z,78878.62
2019-03-24T13:26:07.639Z,78847.29
2019-03-24T13:28:38.501Z,78816.97
2019-03-24T13:31:08.267Z,78826.06
2019-03-24T13:33:38.292Z,78841.23
2019-03-24T13:36:13.114Z,78812.92
2019-03-24T13:38:43.123Z,78811.92
2019-03-24T13:41:12.876Z,78780.59
2019-03-24T13:43:43.386Z,78770.48
2019-03-24T13:46:14.212Z,78766.44
2019-03-24T13:48:43.876Z,78779.58
2019-03-24T13:51:13.690Z,78780.59
2019-03-24T13:53:44.298Z,78796.76
2019-03-24T13:56:14.406Z,78766.44
2019-03-24T13:58:48.192Z,78827.08
2019-03-24T14:01:18.008Z,78833.14
2019-03-24T14:03:47.786Z,78797.77
2019-03-24T14:06:17.854Z,78725.01
2019-03-24T14:08:48.663Z,78670.44
2019-03-24T14:11:18.357Z,78739.16
2019-03-24T14:13:48.540Z,78697.72
2019-03-24T14:16:18.335Z,78702.77
2019-03-24T14:18:48.738Z,78736.13
2019-03-24T14:21:18.759Z,78760.38
2019-03-24T14:23:48.648Z,78751.28
2019-03-24T14:26:20.232Z,78750.27
2019-03-24T14:28:49.955Z,78766.44
2019-03-24T14:31:19.768Z,78773.52
2019-03-24T14:33:49.796Z,78764.42
2019-03-24T14:36:19.865Z,78746.23
2019-03-24T14:38:49.630Z,78733.09
2019-03-24T14:41:19.339Z,78701.77
2019-03-24T14:43:49.463Z,78707.83
2019-03-24T14:46:19.525Z,78652.25
2019-03-24T14:48:49.537Z,78662.35
2019-03-24T14:51:20.208Z,78671.45
2019-03-24T14:53:50.247Z,78700.75
2019-03-24T14:56:19.971Z,78654.27
2019-03-24T14:58:49.714Z,78634.05
2019-03-24T15:01:20.211Z,78601.72
2019-03-24T15:03:50.323Z,78676.50
2019-03-24T15:06:21.819Z,78717.94
2019-03-24T15:08:51.865Z,78767.45
2019-03-24T15:11:21.981Z,78761.39
2019-03-24T15:13:51.977Z,78797.77
2019-03-24T15:16:22.025Z,78812.92
2019-03-24T15:18:51.719Z,78836.17
2019-03-24T15:21:21.853Z,78825.05
2019-03-24T15:23:52.636Z,78830.11
2019-03-24T15:26:22.459Z,78851.33
2019-03-24T15:28:52.628Z,78841.23
2019-03-24T15:31:22.687Z,78866.48
2019-03-24T15:33:53.080Z,78868.52
2019-03-24T15:36:22.834Z,78861.44
2019-03-24T15:38:52.819Z,78837.18
2019-03-24T15:41:23.564Z,78817.98
2019-03-24T15:43:53.248Z,78820.00
2019-03-24T15:46:24.702Z,78823.03
2019-03-24T15:48:54.939Z,78825.05
2019-03-24T15:51:24.975Z,78830.11
2019-03-24T15:53:55.707Z,78828.09
2019-03-24T15:56:26.259Z,78826.06
2019-03-24T15:58:56.145Z,78828.09
2019-03-24T16:01:26.405Z,78858.41
2019-03-24T16:03:56.091Z,78866.48
2019-03-24T16:06:25.843Z,78864.47
2019-03-24T16:08:56.301Z,78860.42
2019-03-24T16:11:26.266Z,78864.47
2019-03-24T16:13:55.989Z,78873.56
2019-03-24T16:16:26.033Z,78874.58
2019-03-24T16:18:56.209Z,78890.75
2019-03-24T16:21:28.062Z,78895.80
2019-03-24T16:23:57.436Z,78891.75
2019-03-24T16:26:27.167Z,78904.89
2019-03-24T16:28:56.903Z,78925.11
2019-03-24T16:31:26.905Z,78937.23
2019-03-24T16:33:56.578Z,78930.16
2019-03-24T16:36:26.290Z,78929.15
2019-03-24T16:39:03.621Z,78934.20
2019-03-24T16:41:28.103Z,78923.08
2019-03-24T16:43:57.855Z,78931.17
2019-03-24T16:46:28.823Z,78946.33
2019-03-24T16:48:58.538Z,78939.25
2019-03-24T16:51:38.218Z,78953.41
2019-03-24T16:54:00.195Z,78957.45
2019-03-24T16:56:29.910Z,78953.41
2019-03-24T16:58:59.984Z,78973.61
2019-03-24T17:01:30.070Z,78979.68
2019-03-24T17:03:59.815Z,78983.72
2019-03-24T17:06:29.604Z,78969.57
2019-03-24T17:08:59.519Z,78981.70
2019-03-24T17:11:29.232Z,78989.78
2019-03-24T17:13:58.911Z,79001.91
2019-03-24T17:16:29.001Z,79004.95
2019-03-24T17:18:58.665Z,79011.02
2019-03-24T17:21:29.223Z,79013.03
2019-03-24T17:23:58.924Z,79024.15
2019-03-24T17:26:29.063Z,79024.15
2019-03-24T17:28:59.786Z,79042.34
2019-03-24T17:31:29.511Z,79055.48
2019-03-24T17:33:59.560Z,79054.47
2019-03-24T17:36:29.301Z,79070.64
2019-03-24T17:38:59.055Z,79088.83
2019-03-24T17:41:29.446Z,79080.74
2019-03-24T17:44:03.451Z,79091.86
2019-03-24T17:46:33.046Z,79111.06
2019-03-24T17:49:03.788Z,79108.03
2019-03-24T17:51:33.684Z,79127.23
2019-03-24T17:54:03.880Z,79147.45
2019-03-24T17:56:33.671Z,79143.41
2019-03-24T17:59:03.498Z,79151.48
2019-03-24T18:01:33.244Z,79159.58
2019-03-24T18:04:03.930Z,79175.75
2019-03-24T18:06:34.029Z,79193.94
2019-03-24T18:09:04.603Z,79212.13
2019-03-24T18:11:35.009Z,79214.16
2019-03-24T18:14:04.764Z,79233.36
2019-03-24T18:16:35.870Z,79237.40
2019-03-24T18:19:06.683Z,79242.45
2019-03-24T18:21:37.343Z,79235.38
2019-03-24T18:24:07.217Z,79228.30
2019-03-24T18:26:37.359Z,79210.11
2019-03-24T18:29:07.068Z,79177.77
2019-03-24T18:31:36.861Z,79164.63
2019-03-24T18:34:06.577Z,79153.52
2019-03-24T18:36:36.355Z,79150.48
2019-03-24T18:39:09.148Z,79138.35
2019-03-24T18:41:38.947Z,79138.35
2019-03-24T18:44:08.948Z,79135.32
2019-03-24T18:46:39.506Z,79150.48
2019-03-24T18:49:09.296Z,79168.67
2019-03-24T18:51:39.047Z,79188.89
2019-03-24T18:54:08.949Z,79196.97
2019-03-24T18:56:38.666Z,79212.13
2019-03-24T18:59:08.649Z,79228.30
2019-03-24T19:01:38.771Z,79244.47
2019-03-24T19:04:10.505Z,79261.66
2019-03-24T19:06:40.771Z,79278.84
2019-03-24T19:09:13.442Z,79278.84
2019-03-24T19:11:44.350Z,79272.77
2019-03-24T19:14:14.203Z,79285.91
2019-03-24T19:16:44.257Z,79279.84
2019-03-24T19:19:14.796Z,79285.91
2019-03-24T19:21:44.479Z,79285.91
2019-03-24T19:24:14.257Z,79277.83
2019-03-24T19:26:44.113Z,79286.92
2019-03-24T19:29:14.163Z,79305.12
2019-03-24T19:31:44.188Z,79312.19
2019-03-24T19:34:14.230Z,79317.25
2019-03-24T19:36:44.133Z,79332.41
2019-03-24T19:39:14.007Z,79333.42
2019-03-24T19:41:43.861Z,79340.49
2019-03-24T19:44:13.879Z,79348.58
2019-03-24T19:46:44.127Z,79343.52
2019-03-24T19:49:13.872Z,79354.64
2019-03-24T19:51:43.766Z,79362.73
2019-03-24T19:54:13.693Z,79369.80
2019-03-24T19:56:43.988Z,79375.87
2019-03-24T19:59:14.800Z,79372.84
2019-03-24T20:01:45.021Z,79365.77
2019-03-24T20:04:15.136Z,79375.87
2019-03-24T20:06:45.181Z,79378.90
2019-03-24T20:09:15.394Z,79385.97
2019-03-24T20:11:45.265Z,79395.07
2019-03-24T20:14:15.426Z,79381.93
2019-03-24T20:16:46.081Z,79396.08
2019-03-24T20:19:15.879Z,79410.23
2019-03-24T20:21:45.601Z,79411.24
2019-03-24T20:24:15.301Z,79415.28
2019-03-24T20:26:45.053Z,79416.30
2019-03-24T20:29:14.980Z,79421.35
2019-03-24T20:31:45.002Z,79426.41
2019-03-24T20:34:14.912Z,79428.42
2019-03-24T20:36:45.408Z,79429.44
2019-03-24T20:39:15.149Z,79435.50
2019-03-24T20:41:45.067Z,79430.45
2019-03-24T20:44:14.949Z,79425.39
2019-03-24T20:46:44.670Z,79440.55
2019-03-24T20:49:14.588Z,79444.59
2019-03-24T20:51:44.321Z,79446.62
2019-03-24T20:54:14.848Z,79448.64
2019-03-24T20:56:44.718Z,79454.70
2019-03-24T20:59:14.945Z,79449.66
2019-03-24T21:01:44.638Z,79448.64
2019-03-24T21:04:17.330Z,79444.59
2019-03-24T21:06:47.423Z,79460.77
2019-03-24T21:09:17.580Z,79454.70
2019-03-24T21:11:48.027Z,79467.84
2019-03-24T21:14:17.747Z,79463.80
2019-03-24T21:16:47.729Z,79464.81
2019-03-24T21:19:17.735Z,79473.91
2019-03-24T21:21:47.587Z,79473.91
2019-03-24T21:24:17.807Z,79479.97
2019-03-24T21:26:47.635Z,79475.94
2019-03-24T21:29:17.423Z,79459.76
2019-03-24T21:31:48.530Z,79470.88
2019-03-24T21:34:19.051Z,79466.84
2019-03-24T21:36:49.507Z,79476.94
2019-03-24T21:39:19.284Z,79482.00
2019-03-24T21:41:49.362Z,79484.02
2019-03-24T21:44:19.121Z,79479.97
2019-03-24T21:46:48.842Z,79475.94
2019-03-24T21:49:19.055Z,79473.91
2019-03-24T21:51:49.215Z,79472.90
2019-03-24T21:54:18.987Z,79474.92
2019-03-24T21:56:49.092Z,79477.95
2019-03-24T21:59:19.151Z,79475.94
2019-03-24T22:01:48.913Z,79475.94
2019-03-24T22:04:18.623Z,79472.90
2019-03-24T22:06:48.598Z,79470.88
2019-03-24T22:09:18.399Z,79478.97
2019-03-24T22:11:49.070Z,79474.92
2019-03-24T22:14:19.186Z,79469.87
2019-03-24T22:16:48.876Z,79452.69
2019-03-24T22:19:19.091Z,79440.55
2019-03-24T22:21:49.123Z,79437.52
2019-03-24T22:24:19.155Z,79440.55
2019-03-24T22:26:49.325Z,79444.59
2019-03-24T22:29:19.065Z,79438.53
2019-03-24T22:31:48.948Z,79423.38
2019-03-24T22:34:18.697Z,79408.21
2019-03-24T22:36:48.428Z,79406.19
2019-03-24T22:39:18.527Z,79401.14
2019-03-24T22:41:48.660Z,79388.00
2019-03-24T22:44:18.375Z,79370.81
2019-03-24T22:46:48.691Z,79361.72
2019-03-24T22:49:18.704Z,79368.80
2019-03-24T22:51:48.432Z,79373.84
2019-03-24T22:54:18.530Z,79369.80
2019-03-24T22:56:48.297Z,79361.72
2019-03-24T22:59:18.027Z,79353.63
2019-03-24T23:01:47.807Z,79357.67
2019-03-24T23:04:18.234Z,79351.61
2019-03-24T23:06:48.314Z,79331.39
2019-03-24T23:09:18.298Z,79339.48
2019-03-24T23:11:48.358Z,79329.38
2019-03-24T23:14:18.120Z,79332.41
2019-03-24T23:16:47.913Z,79324.32
2019-03-24T23:19:18.203Z,79327.35
2019-03-24T23:21:48.281Z,79332.41
2019-03-24T23:24:18.345Z,79314.21
2019-03-24T23:26:48.459Z,79308.15
2019-03-24T23:29:18.483Z,79302.08
2019-03-24T23:31:48.246Z,79278.84
2019-03-24T23:34:17.953Z,79268.73
2019-03-24T23:36:47.697Z,79251.55
2019-03-24T23:39:17.427Z,79248.52
2019-03-24T23:41:47.114Z,79243.47
2019-03-24T23:44:16.859Z,79227.30
2019-03-24T23:46:46.582Z,79197.98
2019-03-24T23:49:17.234Z,79176.76
2019-03-24T23:51:46.945Z,79162.61
2019-03-24T23:54:26.538Z,79149.47
2019-03-24T23:56:48.377Z,79141.38
2019-03-24T23:59:18.200Z,79116.12
